<?xml version="1.0" encoding="UTF-8" standalone="no" ?>
<gpx xmlns="http://www.topografix.com/GPX/1/1" xmlns:xsi="http://www.w3.org/2001/XMLSchema-instance" xsi:schemaLocation="http://www.topografix.com/GPX/1/1 http://www.topografix.com/GPX/1/1/gpx.xsd" version="1.1" creator="VisuGPX - https://www.visugpx.com">
  <metadata>
    <name>parcours 14</name>
    <desc><![CDATA[entraînement]]></desc>
  </metadata>
  <trk>
    <name><![CDATA[ACTIVE LOG133235]]></name>
    <trkseg>
      <trkpt lat="48.38272" lon="-4.50619">
        <ele>15.838</ele>
        <time>2010-08-24T11:32:33Z</time>
      </trkpt>
      <trkpt lat="48.38271" lon="-4.50618">
        <ele>15.846</ele>
        <time>2010-08-24T11:32:38Z</time>
      </trkpt>
      <trkpt lat="48.3827" lon="-4.50603">
        <ele>14.184</ele>
        <time>2010-08-24T11:32:43Z</time>
      </trkpt>
      <trkpt lat="48.38262" lon="-4.5056">
        <ele>17.911</ele>
        <time>2010-08-24T11:32:49Z</time>
      </trkpt>
      <trkpt lat="48.38256" lon="-4.5052">
        <ele>21.342</ele>
        <time>2010-08-24T11:32:53Z</time>
      </trkpt>
      <trkpt lat="48.3825" lon="-4.5048">
        <ele>24.292</ele>
        <time>2010-08-24T11:32:57Z</time>
      </trkpt>
      <trkpt lat="48.38248" lon="-4.5046">
        <ele>25.395</ele>
        <time>2010-08-24T11:32:59Z</time>
      </trkpt>
      <trkpt lat="48.38243" lon="-4.50427">
        <ele>28.558</ele>
        <time>2010-08-24T11:33:03Z</time>
      </trkpt>
      <trkpt lat="48.38239" lon="-4.50398">
        <ele>31.795</ele>
        <time>2010-08-24T11:33:08Z</time>
      </trkpt>
      <trkpt lat="48.38237" lon="-4.50385">
        <ele>34.16</ele>
        <time>2010-08-24T11:33:11Z</time>
      </trkpt>
      <trkpt lat="48.38236" lon="-4.50372">
        <ele>37.293</ele>
        <time>2010-08-24T11:33:17Z</time>
      </trkpt>
      <trkpt lat="48.38236" lon="-4.50372">
        <ele>37.516</ele>
        <time>2010-08-24T11:33:18Z</time>
      </trkpt>
      <trkpt lat="48.38236" lon="-4.50372">
        <ele>41.137</ele>
        <time>2010-08-24T11:33:29Z</time>
      </trkpt>
      <trkpt lat="48.38235" lon="-4.50366">
        <ele>43.183</ele>
        <time>2010-08-24T11:33:39Z</time>
      </trkpt>
      <trkpt lat="48.38233" lon="-4.50354">
        <ele>42.787</ele>
        <time>2010-08-24T11:33:44Z</time>
      </trkpt>
      <trkpt lat="48.38261" lon="-4.50357">
        <ele>41.733</ele>
        <time>2010-08-24T11:33:47Z</time>
      </trkpt>
      <trkpt lat="48.38328" lon="-4.50365">
        <ele>38.436</ele>
        <time>2010-08-24T11:33:56Z</time>
      </trkpt>
      <trkpt lat="48.3835" lon="-4.50369">
        <ele>37.044</ele>
        <time>2010-08-24T11:34:02Z</time>
      </trkpt>
      <trkpt lat="48.38362" lon="-4.50373">
        <ele>35.292</ele>
        <time>2010-08-24T11:34:05Z</time>
      </trkpt>
      <trkpt lat="48.38376" lon="-4.50377">
        <ele>34.375</ele>
        <time>2010-08-24T11:34:17Z</time>
      </trkpt>
      <trkpt lat="48.38376" lon="-4.50377">
        <ele>35.215</ele>
        <time>2010-08-24T11:34:19Z</time>
      </trkpt>
      <trkpt lat="48.38378" lon="-4.50377">
        <ele>34.571</ele>
        <time>2010-08-24T11:34:32Z</time>
      </trkpt>
      <trkpt lat="48.38378" lon="-4.50377">
        <ele>34.313</ele>
        <time>2010-08-24T11:34:48Z</time>
      </trkpt>
      <trkpt lat="48.384" lon="-4.50384">
        <ele>34.105</ele>
        <time>2010-08-24T11:34:50Z</time>
      </trkpt>
      <trkpt lat="48.38425" lon="-4.50387">
        <ele>37.009</ele>
        <time>2010-08-24T11:34:59Z</time>
      </trkpt>
      <trkpt lat="48.38462" lon="-4.50393">
        <ele>40.111</ele>
        <time>2010-08-24T11:35:09Z</time>
      </trkpt>
      <trkpt lat="48.38495" lon="-4.50399">
        <ele>43.112</ele>
        <time>2010-08-24T11:35:20Z</time>
      </trkpt>
      <trkpt lat="48.38539" lon="-4.50408">
        <ele>46.239</ele>
        <time>2010-08-24T11:35:33Z</time>
      </trkpt>
      <trkpt lat="48.38574" lon="-4.50414">
        <ele>48.601</ele>
        <time>2010-08-24T11:35:43Z</time>
      </trkpt>
      <trkpt lat="48.3858" lon="-4.50416">
        <ele>49.134</ele>
        <time>2010-08-24T11:35:45Z</time>
      </trkpt>
      <trkpt lat="48.38609" lon="-4.50421">
        <ele>50.908</ele>
        <time>2010-08-24T11:35:54Z</time>
      </trkpt>
      <trkpt lat="48.38614" lon="-4.50403">
        <ele>51.045</ele>
        <time>2010-08-24T11:35:58Z</time>
      </trkpt>
      <trkpt lat="48.38613" lon="-4.50376">
        <ele>49.733</ele>
        <time>2010-08-24T11:36:03Z</time>
      </trkpt>
      <trkpt lat="48.38611" lon="-4.5032">
        <ele>48.912</ele>
        <time>2010-08-24T11:36:14Z</time>
      </trkpt>
      <trkpt lat="48.38611" lon="-4.5032">
        <ele>49.381</ele>
        <time>2010-08-24T11:36:31Z</time>
      </trkpt>
      <trkpt lat="48.38611" lon="-4.50309">
        <ele>49.155</ele>
        <time>2010-08-24T11:36:41Z</time>
      </trkpt>
      <trkpt lat="48.38624" lon="-4.50304">
        <ele>48.736</ele>
        <time>2010-08-24T11:36:46Z</time>
      </trkpt>
      <trkpt lat="48.38656" lon="-4.50309">
        <ele>49.503</ele>
        <time>2010-08-24T11:36:55Z</time>
      </trkpt>
      <trkpt lat="48.38673" lon="-4.50311">
        <ele>51.13</ele>
        <time>2010-08-24T11:36:58Z</time>
      </trkpt>
      <trkpt lat="48.38731" lon="-4.50323">
        <ele>50.086</ele>
        <time>2010-08-24T11:37:12Z</time>
      </trkpt>
      <trkpt lat="48.38762" lon="-4.5033">
        <ele>46.949</ele>
        <time>2010-08-24T11:37:18Z</time>
      </trkpt>
      <trkpt lat="48.38767" lon="-4.50332">
        <ele>46.809</ele>
        <time>2010-08-24T11:37:19Z</time>
      </trkpt>
      <trkpt lat="48.38813" lon="-4.50342">
        <ele>47.112</ele>
        <time>2010-08-24T11:37:27Z</time>
      </trkpt>
      <trkpt lat="48.38836" lon="-4.50346">
        <ele>44.261</ele>
        <time>2010-08-24T11:37:31Z</time>
      </trkpt>
      <trkpt lat="48.38877" lon="-4.50354">
        <ele>42.837</ele>
        <time>2010-08-24T11:37:37Z</time>
      </trkpt>
      <trkpt lat="48.3896" lon="-4.50365">
        <ele>44.834</ele>
        <time>2010-08-24T11:37:48Z</time>
      </trkpt>
      <trkpt lat="48.38966" lon="-4.50364">
        <ele>44.634</ele>
        <time>2010-08-24T11:38:01Z</time>
      </trkpt>
      <trkpt lat="48.3899" lon="-4.5036">
        <ele>43.863</ele>
        <time>2010-08-24T11:38:20Z</time>
      </trkpt>
      <trkpt lat="48.39021" lon="-4.50359">
        <ele>44.409</ele>
        <time>2010-08-24T11:38:27Z</time>
      </trkpt>
      <trkpt lat="48.39057" lon="-4.5036">
        <ele>46.449</ele>
        <time>2010-08-24T11:38:38Z</time>
      </trkpt>
      <trkpt lat="48.39119" lon="-4.50362">
        <ele>48.468</ele>
        <time>2010-08-24T11:38:52Z</time>
      </trkpt>
      <trkpt lat="48.39172" lon="-4.50377">
        <ele>48.73</ele>
        <time>2010-08-24T11:39:03Z</time>
      </trkpt>
      <trkpt lat="48.3919" lon="-4.50382">
        <ele>49.631</ele>
        <time>2010-08-24T11:39:07Z</time>
      </trkpt>
      <trkpt lat="48.39208" lon="-4.50334">
        <ele>48.769</ele>
        <time>2010-08-24T11:39:13Z</time>
      </trkpt>
      <trkpt lat="48.39237" lon="-4.50187">
        <ele>50.449</ele>
        <time>2010-08-24T11:39:33Z</time>
      </trkpt>
      <trkpt lat="48.39274" lon="-4.50009">
        <ele>51.175</ele>
        <time>2010-08-24T11:39:56Z</time>
      </trkpt>
    </trkseg>
  </trk>
</gpx>